This is the latest recevied weather packets stored in our database for station/object HB9MZI. If no packets are shown the sender has not sent any weather packets the latest 10 day(s).
| Time | Temp. | Humidity | Pressure | Rain* | Wind** | Luminosity | Snow |
|---|---|---|---|---|---|---|---|
| 1787379252 | 16.67° C | 93% | 990.7 hPa | 0 mm | 0.45 m/s, 17° | - | - |
| 1787378647 | 17.22° C | 92% | 990.6 hPa | 0 mm | 0.45 m/s, 23° | - | - |
| 1787377740 | 17.22° C | 86% | 990.3 hPa | 0 mm | 0.45 m/s, 152° | - | - |
| 1787377437 | 17.22° C | 87% | 990.3 hPa | 0 mm | 0 m/s | - | - |
| 1787377135 | 16.67° C | 89% | 990.2 hPa | 0 mm | 0.45 m/s, 141° | - | - |
| 1787376529 | 16.11° C | 97% | 990.1 hPa | 0 mm | 0 m/s | - | - |
| 1787376227 | 16.11° C | 96% | 990.2 hPa | 0 mm | 0 m/s | - | - |
| 1787375924 | 16.11° C | 95% | 990 hPa | 0 mm | 0 m/s | - | - |
| 1787375622 | 16.11° C | 94% | 989.9 hPa | 0 mm | 0 m/s | - | - |
| 1787375319 | 16.67° C | 95% | 989.9 hPa | 0 mm | 0 m/s | - | - |
| 1787374110 | 15.56° C | 99% | 989.8 hPa | 0 mm | 0 m/s | - | - |
| 1787373807 | 16.11° C | 98% | 989.9 hPa | 0 mm | 0 m/s | - | - |
| 1787372295 | 16.11° C | 98% | 989.8 hPa | 0 mm | 0 m/s | - | - |
| 1787369875 | 16.67° C | 96% | 989.8 hPa | 0.25 mm | 0 m/s | - | - |
| 1787369574 | 16.67° C | 95% | 989.7 hPa | 0.25 mm | 0 m/s | - | - |
| 1787368061 | 18.33° C | 81% | 989.2 hPa | 0.25 mm | 0 m/s | - | - |
| 1787366851 | 16.67° C | 96% | 989.1 hPa | 0 mm | 0 m/s | - | - |
| 1787365943 | 16.11° C | 100% | 989.2 hPa | 0 mm | 0 m/s | - | - |
| 1787365641 | 16.11° C | 100% | 989.3 hPa | 0 mm | 0 m/s | - | - |
| 1787364733 | 16.11° C | 100% | 989.2 hPa | 0 mm | 0 m/s | - | - |
| 1787363523 | 16.11° C | 100% | 989.2 hPa | 0 mm | 0 m/s | - | - |
| 1787363221 | 16.11° C | 100% | 989.2 hPa | 0 mm | 0 m/s | - | - |
| 1787362616 | 16.11° C | 100% | 989.2 hPa | 0 mm | 0 m/s | - | - |
| 1787362313 | 16.67° C | 100% | 989.2 hPa | 0 mm | 0 m/s | - | - |
| 1787362011 | 16.67° C | 99% | 989.2 hPa | 0 mm | 0 m/s | - | - |
* Rain latest hour (hover to see other rain measurements)
** Current wind speed in m/s (hover to see current wind gust speed)